Time;durP1;ratioP1;P1;durP2;ratioP2;P2;SDS_P1;SDS_P2;PMS_P1;PMS_P2;Temp;Humidity;BMP_temperature;BMP_pressure;BME280_temperature;BME280_humidity;BME280_pressure;Samples;Min_cycle;Max_cycle;Signal;HPM_P1;HPM_P2
2021/12/21 11:41:58;;;;;;;9.50;6.87;;;19.10;77.30;;;;;;5090937;27;20551;-68
2021/12/21 11:44:33;;;;;;;10.80;6.30;;;19.50;77.00;;;;;;5090717;28;20453;-75
2021/12/21 11:47:01;;;;;;;7.03;5.57;;;20.10;74.90;;;;;;5090707;28;20462;-66
2021/12/21 11:49:32;;;;;;;9.50;5.23;;;20.70;73.60;;;;;;5090655;28;20937;-71
2021/12/21 11:52:07;;;;;;;9.17;6.60;;;21.10;72.70;;;;;;5090522;28;20431;-67
2021/12/21 11:54:47;;;;;;;6.30;5.70;;;21.40;71.90;;;;;;5090552;28;20435;-74
2021/12/21 11:57:18;;;;;;;12.17;6.73;;;21.50;71.30;;;;;;5090547;28;20435;-74
2021/12/21 11:59:45;;;;;;;7.00;5.90;;;21.60;70.90;;;;;;5090445;28;20436;-65
2021/12/21 12:02:11;;;;;;;8.90;7.03;;;21.70;70.70;;;;;;5090527;28;20432;-70
2021/12/21 12:04:38;;;;;;;12.43;10.13;;;21.80;70.10;;;;;;5090313;28;20447;-65
2021/12/21 12:07:16;;;;;;;12.73;9.00;;;21.70;66.10;;;;;;5090280;28;20442;-65
2021/12/21 12:09:42;;;;;;;8.53;7.63;;;21.60;68.00;;;;;;5090305;28;20442;-65
2021/12/21 12:12:11;;;;;;;9.30;8.27;;;21.60;69.30;;;;;;5090117;28;20436;-64
2021/12/21 12:14:41;;;;;;;7.97;7.27;;;21.70;69.00;;;;;;5090117;28;20919;-73
2021/12/21 12:17:13;;;;;;;10.20;7.37;;;21.70;69.10;;;;;;5089910;28;20462;-64
2021/12/21 12:19:43;;;;;;;8.17;7.30;;;21.70;68.60;;;;;;5090056;28;20435;-65
2021/12/21 12:22:12;;;;;;;16.50;7.73;;;21.70;69.00;;;;;;5087386;28;20483;-67
2021/12/21 12:24:41;;;;;;;13.33;6.77;;;21.80;68.40;;;;;;5082265;28;20510;-71
2021/12/21 12:27:11;;;;;;;8.33;7.43;;;21.80;69.00;;;;;;5069211;28;20447;-71
2021/12/21 12:29:48;;;;;;;9.47;7.30;;;21.80;68.90;;;;;;5069213;28;20449;-71
2021/12/21 12:32:16;;;;;;;8.87;7.67;;;21.90;69.00;;;;;;5069061;28;20448;-72
2021/12/21 12:34:44;;;;;;;8.37;7.40;;;21.90;69.10;;;;;;5068907;28;20448;-68
2021/12/21 12:37:18;;;;;;;10.87;8.60;;;21.90;69.00;;;;;;5068777;28;20433;-70
2021/12/21 12:39:46;;;;;;;9.90;7.60;;;22.00;69.00;;;;;;5068571;28;20436;-71
2021/12/21 12:42:17;;;;;;;7.17;6.47;;;22.00;68.90;;;;;;5068871;28;20437;-70
2021/12/21 12:44:49;;;;;;;7.97;7.20;;;22.00;68.90;;;;;;5068719;28;20440;-71
2021/12/21 12:47:17;;;;;;;14.73;11.37;;;22.00;68.80;;;;;;5068628;28;20809;-72
2021/12/21 12:49:51;;;;;;;9.63;8.57;;;21.90;63.70;;;;;;5068653;28;20452;-72
2021/12/21 12:52:24;;;;;;;21.63;8.93;;;21.70;66.10;;;;;;5060564;28;20447;-72
2021/12/21 12:54:53;;;;;;;11.27;8.50;;;21.70;67.80;;;;;;5055394;28;20442;-72
2021/12/21 12:57:30;;;;;;;9.10;7.83;;;21.70;68.50;;;;;;5055237;28;20448;-78
2021/12/21 13:00:09;;;;;;;8.77;7.50;;;21.80;69.20;;;;;;5055296;28;20433;-75
2021/12/21 13:02:36;;;;;;;16.83;9.07;;;22.00;70.00;;;;;;5055987;28;20793;-68
2021/12/21 13:05:08;;;;;;;11.07;8.77;;;22.00;70.20;;;;;;5054515;28;20437;-71
2021/12/21 13:07:34;;;;;;;10.97;8.20;;;22.10;70.60;;;;;;5055036;28;20434;-71
2021/12/21 13:10:04;;;;;;;10.20;7.50;;;22.10;70.70;;;;;;5054728;28;20445;-72
2021/12/21 13:12:30;;;;;;;7.47;6.80;;;22.20;71.20;;;;;;5055124;28;20460;-71
2021/12/21 13:14:59;;;;;;;13.50;7.97;;;22.20;71.20;;;;;;5053920;28;20445;-77
2021/12/21 13:17:26;;;;;;;10.00;7.30;;;22.20;71.10;;;;;;5067148;28;20461;-78
2021/12/21 13:19:53;;;;;;;14.80;7.43;;;22.30;71.50;;;;;;5054566;28;20429;-78
2021/12/21 13:22:24;;;;;;;10.90;8.03;;;22.30;71.50;;;;;;5054880;28;20496;-77
2021/12/21 13:24:52;;;;;;;9.57;7.50;;;22.30;71.50;;;;;;5054814;28;20446;-78
2021/12/21 13:27:20;;;;;;;13.53;8.10;;;22.30;71.40;;;;;;5054753;28;20446;-78
2021/12/21 13:29:48;;;;;;;8.33;7.40;;;22.40;71.60;;;;;;5054683;28;20449;-77
2021/12/21 13:32:19;;;;;;;12.50;9.50;;;22.40;71.70;;;;;;5054057;28;20446;-78
2021/12/21 13:34:52;;;;;;;10.43;8.60;;;22.40;71.60;;;;;;5054209;28;20528;-69
2021/12/21 13:37:19;;;;;;;9.27;8.23;;;22.40;71.30;;;;;;5054119;28;20441;-72
2021/12/21 13:39:47;;;;;;;12.30;8.00;;;22.40;71.40;;;;;;5053940;28;20476;-68
2021/12/21 13:42:18;;;;;;;12.13;9.07;;;22.40;71.40;;;;;;5054236;28;20485;-68
2021/12/21 13:44:47;;;;;;;11.60;8.80;;;22.40;71.20;;;;;;5054081;28;20449;-71
2021/12/21 13:47:21;;;;;;;11.23;8.40;;;22.50;71.10;;;;;;5054127;28;20469;-70
2021/12/21 13:49:52;;;;;;;10.27;7.80;;;22.50;71.30;;;;;;5054255;28;20446;-70
2021/12/21 13:52:20;;;;;;;24.10;12.80;;;22.50;71.20;;;;;;5054188;28;20806;-67
2021/12/21 13:54:47;;;;;;;14.47;10.00;;;22.40;68.10;;;;;;5054028;28;20449;-64
2021/12/21 13:57:16;;;;;;;13.20;9.10;;;22.40;70.30;;;;;;5054130;28;20448;-67
2021/12/21 13:59:42;;;;;;;11.70;10.23;;;22.40;70.90;;;;;;5053952;28;20458;-66
2021/12/21 14:02:24;;;;;;;11.10;9.90;;;22.30;70.70;;;;;;5053141;28;20492;-67
2021/12/21 14:04:59;;;;;;;18.40;11.30;;;22.40;70.40;;;;;;5052402;28;20453;-67
2021/12/21 14:07:28;;;;;;;13.23;9.93;;;22.30;70.00;;;;;;5053571;28;20542;-67
2021/12/21 14:10:04;;;;;;;12.67;9.77;;;22.30;69.90;;;;;;5053842;28;20940;-67
2021/12/21 14:12:31;;;;;;;17.43;10.37;;;22.30;69.80;;;;;;5053859;28;20453;-67
2021/12/21 14:14:58;;;;;;;13.30;9.97;;;22.20;69.70;;;;;;5053756;28;20445;-66
2021/12/21 14:17:28;;;;;;;13.30;11.03;;;22.20;69.60;;;;;;5053975;28;20511;-67
2021/12/21 14:19:57;;;;;;;10.67;8.87;;;22.20;69.50;;;;;;5053780;28;20438;-67
2021/12/21 14:22:23;;;;;;;12.17;9.97;;;22.10;69.30;;;;;;5053774;28;20488;-67
2021/12/21 14:24:50;;;;;;;11.90;9.77;;;22.10;69.20;;;;;;5053623;28;20441;-66
2021/12/21 14:27:18;;;;;;;13.47;10.30;;;22.10;69.10;;;;;;5053649;28;20476;-66
2021/12/21 14:29:46;;;;;;;14.97;10.13;;;22.10;69.10;;;;;;5053036;28;20536;-66
2021/12/21 14:32:17;;;;;;;11.60;10.13;;;22.10;69.10;;;;;;5053265;28;20978;-67
2021/12/21 14:34:47;;;;;;;13.00;10.33;;;22.10;69.10;;;;;;5053340;28;20442;-67
2021/12/21 14:37:17;;;;;;;12.57;9.77;;;22.00;69.00;;;;;;5053385;28;20524;-66
2021/12/21 14:39:46;;;;;;;14.33;11.13;;;22.00;69.10;;;;;;5052971;28;20442;-66
2021/12/21 14:42:15;;;;;;;12.27;10.97;;;22.00;69.00;;;;;;5053206;28;20488;-66
2021/12/21 14:44:44;;;;;;;14.00;10.90;;;22.00;69.00;;;;;;5053284;28;20956;-67
2021/12/21 14:47:12;;;;;;;12.90;10.47;;;22.00;69.10;;;;;;5053075;28;20504;-67
2021/12/21 14:49:44;;;;;;;11.50;10.30;;;22.00;68.90;;;;;;5053519;28;20460;-67
2021/12/21 14:52:18;;;;;;;14.70;11.63;;;21.90;68.80;;;;;;5053337;28;20445;-67
2021/12/21 14:54:51;;;;;;;15.47;9.27;;;22.00;68.80;;;;;;5052880;28;20440;-67
2021/12/21 14:57:19;;;;;;;16.73;12.00;;;21.90;68.70;;;;;;5052819;28;20446;-67
2021/12/21 14:59:50;;;;;;;21.10;11.37;;;22.00;69.20;;;;;;5052502;28;20445;-66
2021/12/21 15:02:48;;;;;;;26.93;16.30;;;22.00;69.60;;;;;;5052900;28;21081;-67
2021/12/21 15:05:13;;;;;;;26.30;15.47;;;21.90;64.90;;;;;;5052822;28;20431;-67
2021/12/21 15:07:42;;;;;;;22.47;15.03;;;21.70;67.20;;;;;;5052954;28;20437;-67
2021/12/21 15:10:10;;;;;;;24.30;13.70;;;21.70;65.00;;;;;;5052644;28;20937;-66
2021/12/21 15:12:37;;;;;;;19.80;13.23;;;21.70;67.50;;;;;;5052807;28;20456;-66
2021/12/21 15:15:06;;;;;;;16.20;12.40;;;21.80;68.70;;;;;;5052270;28;20437;-66
2021/12/21 15:17:33;;;;;;;21.93;11.67;;;21.90;69.20;;;;;;5057493;28;20452;-65
2021/12/21 15:20:00;;;;;;;19.13;10.97;;;22.00;69.50;;;;;;5054387;28;20437;-64
2021/12/21 15:22:26;;;;;;;21.97;12.40;;;22.10;69.80;;;;;;5062113;28;20547;-65
2021/12/21 15:24:54;;;;;;;15.30;10.93;;;22.20;69.80;;;;;;5060210;28;20441;-66
2021/12/21 15:27:21;;;;;;;16.27;11.90;;;22.20;69.70;;;;;;5062149;28;20441;-65
2021/12/21 15:29:48;;;;;;;18.97;13.43;;;22.30;69.70;;;;;;5059937;28;20434;-65
2021/12/21 15:32:17;;;;;;;22.80;17.37;;;22.30;69.50;;;;;;5061093;28;20443;-66
2021/12/21 15:34:45;;;;;;;25.07;17.50;;;22.30;64.40;;;;;;5056063;28;20449;-66
2021/12/21 15:37:13;;;;;;;27.27;17.27;;;22.00;64.70;;;;;;5050981;28;20469;-66
2021/12/21 15:39:40;;;;;;;24.23;16.90;;;21.90;65.60;;;;;;5051736;28;20434;-66
2021/12/21 15:42:14;;;;;;;21.43;15.80;;;22.00;66.30;;;;;;5060934;28;20519;-66
2021/12/21 15:44:43;;;;;;;22.43;14.63;;;22.00;66.80;;;;;;5061291;28;20441;-66
2021/12/21 15:47:10;;;;;;;26.30;14.50;;;22.10;67.50;;;;;;5059381;28;20468;-66
2021/12/21 15:49:38;;;;;;;20.37;13.50;;;22.20;67.10;;;;;;5057284;28;20445;-66
2021/12/21 15:52:06;;;;;;;25.80;15.00;;;22.20;68.50;;;;;;5061576;28;20433;-66
2021/12/21 15:54:35;;;;;;;22.80;14.73;;;22.30;69.20;;;;;;5061384;28;20429;-64
2021/12/21 15:57:07;;;;;;;22.50;13.30;;;22.30;69.70;;;;;;5069205;28;20442;-64
2021/12/21 15:59:41;;;;;;;18.47;13.40;;;22.30;69.60;;;;;;5056970;28;20453;-66
2021/12/21 16:02:12;;;;;;;18.60;12.90;;;22.40;69.60;;;;;;5059863;28;20480;-64
2021/12/21 16:04:39;;;;;;;17.27;12.53;;;22.40;69.50;;;;;;5062605;28;20442;-66
2021/12/21 16:07:08;;;;;;;17.73;13.03;;;22.40;69.40;;;;;;5062813;28;20440;-66
2021/12/21 16:09:35;;;;;;;19.40;13.27;;;22.40;69.40;;;;;;5061796;28;20920;-66
2021/12/21 16:12:02;;;;;;;17.07;12.33;;;22.50;69.50;;;;;;5061752;28;20438;-64
2021/12/21 16:14:28;;;;;;;19.03;11.27;;;22.50;69.30;;;;;;5054834;28;20433;-67
2021/12/21 16:16:59;;;;;;;20.73;13.50;;;22.50;69.40;;;;;;5052018;28;20469;-68
2021/12/21 16:19:25;;;;;;;25.90;14.80;;;22.40;70.20;;;;;;5051931;28;20456;-68
2021/12/21 16:21:53;;;;;;;20.33;13.87;;;22.30;70.20;;;;;;5051932;28;20489;-67
2021/12/21 16:24:20;;;;;;;25.20;13.97;;;22.30;70.00;;;;;;5051656;28;20449;-67
2021/12/21 16:26:47;;;;;;;22.20;13.30;;;22.30;70.00;;;;;;5052552;28;20437;-67
2021/12/21 16:29:14;;;;;;;17.00;13.23;;;22.20;69.90;;;;;;5055472;28;20441;-67
2021/12/21 16:31:41;;;;;;;20.47;13.23;;;22.20;70.50;;;;;;5055682;28;20449;-67
2021/12/21 16:34:09;;;;;;;17.57;11.90;;;22.10;69.50;;;;;;5055619;28;20437;-67
2021/12/21 16:36:36;;;;;;;16.00;12.50;;;22.00;69.60;;;;;;5055597;28;20920;-67
2021/12/21 16:39:05;;;;;;;23.43;13.63;;;22.00;69.60;;;;;;5055427;28;20441;-67
2021/12/21 16:41:32;;;;;;;18.50;14.27;;;21.90;69.40;;;;;;5055249;28;20481;-67
2021/12/21 16:44:01;;;;;;;15.57;13.00;;;21.80;69.80;;;;;;5055547;28;20448;-68
2021/12/21 16:46:29;;;;;;;17.57;12.70;;;21.90;69.90;;;;;;5055611;28;21021;-67
2021/12/21 16:48:55;;;;;;;20.67;13.47;;;21.90;69.80;;;;;;5055165;28;20442;-67
2021/12/21 16:51:24;;;;;;;22.13;14.10;;;21.90;69.50;;;;;;5055217;28;20453;-67
2021/12/21 16:53:51;;;;;;;15.33;12.00;;;21.80;69.30;;;;;;5055274;28;20449;-67
2021/12/21 16:56:17;;;;;;;20.27;12.57;;;21.80;69.10;;;;;;5055461;28;20446;-67
2021/12/21 16:58:45;;;;;;;15.10;11.50;;;21.80;69.20;;;;;;5055358;28;20449;-67
2021/12/21 17:01:12;;;;;;;16.53;12.67;;;21.80;69.00;;;;;;5055220;28;20774;-67
2021/12/21 17:03:40;;;;;;;15.00;12.30;;;21.80;69.00;;;;;;5055211;28;20480;-67
2021/12/21 17:06:09;;;;;;;15.63;11.17;;;21.80;68.80;;;;;;5055168;28;20792;-67
2021/12/21 17:08:43;;;;;;;15.50;11.53;;;21.80;68.60;;;;;;5055127;28;20454;-66
2021/12/21 17:11:11;;;;;;;18.57;12.60;;;21.80;68.60;;;;;;5055281;28;20472;-69
2021/12/21 17:13:38;;;;;;;16.00;12.00;;;21.70;67.50;;;;;;5054803;28;20446;-68
2021/12/21 17:16:06;;;;;;;15.80;11.77;;;21.70;68.90;;;;;;5054611;28;20484;-66
2021/12/21 17:18:33;;;;;;;17.37;12.33;;;21.70;69.80;;;;;;5054893;28;20433;-67
2021/12/21 17:21:00;;;;;;;14.73;11.50;;;21.80;70.70;;;;;;5054793;28;20437;-68
2021/12/21 17:23:26;;;;;;;16.07;12.10;;;21.90;70.00;;;;;;5054613;28;20508;-68
2021/12/21 17:25:56;;;;;;;18.60;12.60;;;22.00;69.80;;;;;;5054771;28;20948;-67
2021/12/21 17:28:23;;;;;;;18.50;12.33;;;22.00;69.90;;;;;;5054563;28;20802;-67
2021/12/21 17:30:50;;;;;;;14.73;10.73;;;22.00;69.80;;;;;;5054561;28;20441;-67
2021/12/21 17:33:17;;;;;;;11.13;9.93;;;22.00;69.70;;;;;;5054633;28;20441;-67
2021/12/21 17:35:45;;;;;;;14.23;11.90;;;22.00;69.90;;;;;;5054463;28;20445;-70
2021/12/21 17:38:12;;;;;;;12.33;9.73;;;22.00;70.00;;;;;;5054260;28;20628;-67
2021/12/21 17:40:40;;;;;;;14.70;10.57;;;22.00;69.60;;;;;;5053999;28;20478;-66
2021/12/21 17:43:09;;;;;;;12.00;10.10;;;22.20;69.80;;;;;;5054278;28;20585;-67
2021/12/21 17:45:37;;;;;;;12.27;10.23;;;22.20;69.50;;;;;;5054376;28;20512;-67
2021/12/21 17:48:05;;;;;;;13.43;10.20;;;22.30;69.50;;;;;;5054755;28;20445;-66
2021/12/21 17:50:32;;;;;;;12.40;10.40;;;22.40;69.40;;;;;;5054287;28;20440;-67
2021/12/21 17:52:58;;;;;;;11.87;10.63;;;22.40;69.20;;;;;;5054159;28;20442;-67
2021/12/21 17:55:25;;;;;;;13.10;10.07;;;22.40;69.20;;;;;;5054160;28;20448;-67
2021/12/21 17:57:53;;;;;;;11.13;9.93;;;22.50;69.10;;;;;;5054131;28;20837;-66
2021/12/21 18:00:21;;;;;;;11.60;9.30;;;22.50;69.00;;;;;;5054225;28;20449;-66
2021/12/21 18:02:48;;;;;;;10.97;9.20;;;22.50;69.00;;;;;;5054035;28;20496;-67
2021/12/21 18:05:15;;;;;;;13.13;9.90;;;22.50;68.90;;;;;;5054015;28;20945;-66
2021/12/21 18:07:42;;;;;;;14.23;11.13;;;22.50;68.80;;;;;;5053783;28;20536;-67
2021/12/21 18:10:10;;;;;;;30.53;11.83;;;22.50;67.00;;;;;;5054391;28;20491;-75
2021/12/21 18:12:38;;;;;;;13.77;10.30;;;22.50;66.60;;;;;;5054631;28;20445;-69
2021/12/21 18:15:06;;;;;;;16.37;10.17;;;22.20;66.50;;;;;;5054393;28;20464;-67
2021/12/21 18:17:34;;;;;;;13.33;10.27;;;22.10;65.80;;;;;;5054542;28;20440;-68
2021/12/21 18:20:00;;;;;;;14.50;10.47;;;21.90;67.90;;;;;;5054333;28;20444;-67
2021/12/21 18:22:27;;;;;;;13.00;10.03;;;21.80;68.20;;;;;;5054162;28;20481;-65
2021/12/21 18:24:54;;;;;;;18.70;11.77;;;21.80;68.40;;;;;;5054173;28;20442;-67
2021/12/21 18:27:21;;;;;;;12.43;9.87;;;21.70;68.30;;;;;;5054162;28;20468;-73
2021/12/21 18:29:48;;;;;;;11.57;9.60;;;21.70;68.40;;;;;;5054244;28;20448;-67
2021/12/21 18:32:15;;;;;;;11.30;7.83;;;21.80;68.60;;;;;;5054020;28;20446;-67
2021/12/21 18:34:43;;;;;;;15.50;10.73;;;21.90;68.40;;;;;;5053996;28;20434;-67
2021/12/21 18:37:12;;;;;;;10.87;9.67;;;22.00;68.30;;;;;;5054047;28;20438;-67
2021/12/21 18:39:39;;;;;;;11.47;9.20;;;22.00;68.10;;;;;;5053812;28;20452;-67
2021/12/21 18:42:08;;;;;;;13.00;9.27;;;22.10;68.10;;;;;;5053969;28;20821;-66
2021/12/21 18:44:35;;;;;;;10.47;8.10;;;22.10;68.10;;;;;;5053822;28;20450;-67
2021/12/21 18:47:03;;;;;;;12.60;9.93;;;22.10;67.60;;;;;;5054453;28;20944;-67
2021/12/21 18:49:29;;;;;;;10.23;8.23;;;22.10;68.10;;;;;;5072313;28;20445;-67
2021/12/21 18:51:58;;;;;;;10.53;8.60;;;22.10;67.90;;;;;;5071810;28;20460;-67
2021/12/21 18:54:25;;;;;;;10.47;8.50;;;22.20;68.00;;;;;;5072974;28;20955;-67
2021/12/21 18:56:51;;;;;;;12.37;8.90;;;22.20;67.90;;;;;;5073141;28;20444;-67
2021/12/21 18:59:18;;;;;;;9.70;8.53;;;22.30;67.90;;;;;;5073169;28;20448;-67
2021/12/21 19:01:46;;;;;;;9.57;8.57;;;22.30;67.70;;;;;;5073040;28;20436;-67
2021/12/21 19:04:14;;;;;;;10.57;9.20;;;22.40;67.80;;;;;;5072264;28;20882;-67
2021/12/21 19:06:41;;;;;;;10.70;9.13;;;22.30;67.50;;;;;;5073090;28;20939;-67
2021/12/21 19:09:11;;;;;;;10.00;9.00;;;22.40;67.60;;;;;;5073464;28;20450;-67
2021/12/21 19:11:38;;;;;;;11.13;8.57;;;22.40;67.40;;;;;;5073483;28;20439;-67
2021/12/21 19:14:06;;;;;;;11.93;8.80;;;22.40;67.30;;;;;;5056191;28;20469;-67
2021/12/21 19:16:34;;;;;;;9.73;8.73;;;22.40;67.20;;;;;;5053241;28;20460;-67
2021/12/21 19:19:01;;;;;;;11.17;7.77;;;22.40;67.30;;;;;;5053534;28;20469;-67
2021/12/21 19:21:27;;;;;;;9.90;7.47;;;22.40;67.20;;;;;;5053208;28;20437;-67
2021/12/21 19:23:55;;;;;;;10.30;7.70;;;22.40;67.10;;;;;;5053339;28;20976;-67
2021/12/21 19:26:23;;;;;;;9.90;7.70;;;22.40;67.10;;;;;;5053348;28;20449;-67
2021/12/21 19:28:50;;;;;;;7.93;7.13;;;22.40;67.00;;;;;;5053194;28;20446;-67
2021/12/21 19:31:17;;;;;;;9.47;8.20;;;22.40;67.00;;;;;;5053228;28;20445;-67
2021/12/21 19:33:44;;;;;;;8.57;7.03;;;22.40;66.90;;;;;;5053113;28;20453;-67
2021/12/21 19:36:11;;;;;;;11.30;8.27;;;22.40;66.70;;;;;;5053086;28;20445;-67
2021/12/21 19:38:38;;;;;;;8.43;7.07;;;22.40;66.80;;;;;;5053179;28;20801;-67
2021/12/21 19:41:05;;;;;;;7.47;6.73;;;22.40;66.70;;;;;;5052875;28;20828;-67
2021/12/21 19:43:33;;;;;;;9.03;7.17;;;22.40;66.60;;;;;;5052964;28;20485;-67
2021/12/21 19:46:00;;;;;;;9.20;8.27;;;22.40;66.50;;;;;;5052979;28;20461;-67
2021/12/21 19:48:28;;;;;;;11.07;7.30;;;22.50;66.60;;;;;;5052960;28;20442;-67
2021/12/21 19:50:55;;;;;;;7.77;6.87;;;22.50;66.60;;;;;;5053177;28;20985;-67
2021/12/21 19:53:22;;;;;;;9.57;8.30;;;22.50;66.60;;;;;;5052981;28;20434;-67
2021/12/21 19:55:49;;;;;;;8.63;7.83;;;22.50;67.40;;;;;;5052949;28;20437;-67
2021/12/21 19:58:16;;;;;;;10.57;6.80;;;22.50;66.50;;;;;;5052951;28;20831;-67
2021/12/21 20:00:45;;;;;;;7.97;7.07;;;22.50;66.50;;;;;;5052978;28;20445;-67
2021/12/21 20:03:11;;;;;;;8.93;8.00;;;22.50;66.40;;;;;;5056013;28;20489;-67
2021/12/21 20:05:38;;;;;;;8.17;6.90;;;22.50;66.30;;;;;;5057033;28;20795;-67
2021/12/21 20:08:06;;;;;;;8.33;7.33;;;22.50;66.30;;;;;;5056783;28;20819;-67
2021/12/21 20:10:36;;;;;;;9.83;7.93;;;22.50;66.30;;;;;;5056857;28;20426;-67
2021/12/21 20:13:05;;;;;;;9.63;8.50;;;22.50;66.30;;;;;;5056954;28;20445;-67
2021/12/21 20:15:33;;;;;;;7.90;7.10;;;22.50;67.20;;;;;;5056534;28;20472;-67
2021/12/21 20:18:04;;;;;;;8.90;7.03;;;22.50;66.20;;;;;;5056620;28;20437;-67
2021/12/21 20:20:33;;;;;;;9.93;7.70;;;22.50;66.10;;;;;;5056794;28;20438;-67
2021/12/21 20:23:00;;;;;;;8.90;7.70;;;22.50;66.10;;;;;;5056516;28;20547;-67
2021/12/21 20:25:28;;;;;;;9.70;7.07;;;22.50;66.00;;;;;;5056653;28;20441;-67
2021/12/21 20:27:55;;;;;;;11.07;7.37;;;22.50;66.10;;;;;;5056602;28;20449;-67
2021/12/21 20:30:22;;;;;;;7.13;6.43;;;22.50;65.90;;;;;;5056532;28;20446;-67
2021/12/21 20:32:49;;;;;;;7.73;6.90;;;22.50;66.00;;;;;;5056440;28;20441;-67
2021/12/21 20:35:19;;;;;;;7.97;7.17;;;22.50;66.00;;;;;;5056272;28;20448;-67
2021/12/21 20:37:45;;;;;;;7.97;7.23;;;22.50;65.90;;;;;;5056185;28;20444;-67
2021/12/21 20:40:13;;;;;;;7.13;6.43;;;22.50;66.00;;;;;;5056119;28;20997;-67
2021/12/21 20:42:40;;;;;;;6.70;6.00;;;22.50;65.90;;;;;;5056332;28;20485;-67
2021/12/21 20:45:08;;;;;;;8.33;7.40;;;22.50;65.80;;;;;;5056239;28;20820;-67
2021/12/21 20:47:35;;;;;;;7.73;6.93;;;22.50;65.70;;;;;;5056104;28;20445;-67
2021/12/21 20:50:03;;;;;;;6.43;5.83;;;22.50;65.90;;;;;;5056278;28;20449;-67
2021/12/21 20:52:31;;;;;;;6.20;5.60;;;22.50;65.70;;;;;;5056111;28;20449;-67
2021/12/21 20:54:58;;;;;;;7.70;6.87;;;22.50;65.70;;;;;;5056044;28;20448;-67
2021/12/21 20:57:25;;;;;;;8.47;7.10;;;22.50;65.60;;;;;;5055971;28;20433;-67
2021/12/21 20:59:51;;;;;;;6.83;6.10;;;22.50;66.40;;;;;;5055945;28;20464;-67
2021/12/21 21:02:18;;;;;;;6.37;5.67;;;22.50;65.60;;;;;;5055893;28;20795;-67
2021/12/21 21:04:45;;;;;;;7.87;6.60;;;22.50;65.60;;;;;;5055822;28;20446;-67
2021/12/21 21:07:12;;;;;;;7.13;6.43;;;22.50;65.60;;;;;;5055990;28;20438;-67
2021/12/21 21:09:40;;;;;;;7.50;6.80;;;22.50;65.50;;;;;;5055917;28;20441;-67
2021/12/21 21:12:08;;;;;;;6.37;5.63;;;22.50;65.40;;;;;;5055632;28;20445;-67
2021/12/21 21:14:35;;;;;;;8.00;6.37;;;22.50;65.50;;;;;;5055114;28;20474;-67
2021/12/21 21:17:02;;;;;;;6.90;6.20;;;22.50;65.30;;;;;;5055436;28;20885;-67
2021/12/21 21:19:29;;;;;;;7.77;6.67;;;22.50;65.30;;;;;;5055658;28;20491;-67
2021/12/21 21:21:56;;;;;;;7.03;6.10;;;22.50;65.70;;;;;;5055615;28;20429;-67
2021/12/21 21:24:23;;;;;;;6.00;5.40;;;22.50;65.60;;;;;;5055352;28;20511;-67
2021/12/21 21:26:51;;;;;;;7.07;5.93;;;22.50;65.50;;;;;;5055307;28;20866;-67
2021/12/21 21:29:18;;;;;;;6.40;5.80;;;22.50;65.50;;;;;;5055365;28;20437;-67
2021/12/21 21:31:44;;;;;;;7.00;6.30;;;22.50;65.40;;;;;;5055351;28;20444;-67
2021/12/21 21:34:11;;;;;;;6.70;6.07;;;22.50;65.40;;;;;;5055198;28;20845;-67
2021/12/21 21:36:38;;;;;;;7.27;6.57;;;22.50;65.30;;;;;;5055183;28;20441;-67
2021/12/21 21:39:05;;;;;;;6.40;5.80;;;22.50;65.30;;;;;;5055205;28;20791;-67
2021/12/21 21:41:32;;;;;;;6.43;5.83;;;22.50;65.20;;;;;;5054912;28;20469;-67
2021/12/21 21:44:01;;;;;;;6.07;5.50;;;22.50;65.10;;;;;;5055071;28;20477;-67
2021/12/21 21:46:27;;;;;;;7.00;5.87;;;22.50;65.20;;;;;;5055000;28;20857;-67
2021/12/21 21:48:54;;;;;;;6.73;6.07;;;22.50;65.10;;;;;;5055077;28;20436;-67
2021/12/21 21:51:21;;;;;;;6.40;5.80;;;22.50;65.10;;;;;;5054992;28;20438;-67
2021/12/21 21:53:47;;;;;;;6.10;5.50;;;22.50;65.10;;;;;;5054776;28;20449;-67
2021/12/21 21:56:17;;;;;;;6.17;5.57;;;22.50;65.00;;;;;;5054908;28;20445;-67
2021/12/21 21:58:46;;;;;;;6.00;5.50;;;22.50;64.80;;;;;;5054797;28;20761;-67
2021/12/21 22:01:14;;;;;;;6.30;5.70;;;22.50;64.90;;;;;;5054848;28;20507;-67
2021/12/21 22:03:41;;;;;;;6.17;4.93;;;22.50;64.90;;;;;;5054534;28;20987;-67
2021/12/21 22:06:08;;;;;;;5.93;5.37;;;22.50;64.80;;;;;;5054645;28;20438;-67
2021/12/21 22:08:35;;;;;;;5.60;5.10;;;22.50;65.00;;;;;;5054562;28;20909;-67
2021/12/21 22:11:02;;;;;;;6.30;5.70;;;22.50;65.40;;;;;;5054861;28;20448;-67
2021/12/21 22:13:31;;;;;;;6.07;5.57;;;22.50;65.60;;;;;;5054526;28;20442;-67
2021/12/21 22:15:59;;;;;;;6.33;5.50;;;22.50;65.70;;;;;;5054327;28;20504;-67
2021/12/21 22:18:27;;;;;;;6.73;6.03;;;22.50;65.70;;;;;;5054552;28;20434;-67
2021/12/21 22:20:54;;;;;;;8.33;6.57;;;22.50;65.70;;;;;;5054550;28;20448;-67
2021/12/21 22:23:21;;;;;;;7.40;5.93;;;22.60;65.90;;;;;;5054287;28;20490;-67
2021/12/21 22:25:48;;;;;;;5.73;5.27;;;22.60;65.80;;;;;;5053485;28;20448;-67
2021/12/21 22:28:14;;;;;;;6.17;5.53;;;22.60;65.80;;;;;;5054254;28;20445;-67
2021/12/21 22:30:41;;;;;;;5.53;5.03;;;22.60;65.80;;;;;;5054158;28;20951;-67
2021/12/21 22:33:09;;;;;;;5.60;5.10;;;22.60;65.70;;;;;;5054118;28;20449;-67
2021/12/21 22:35:37;;;;;;;5.33;4.83;;;22.60;65.70;;;;;;5054015;28;20446;-67
2021/12/21 22:38:05;;;;;;;5.43;4.87;;;22.70;66.70;;;;;;5054095;28;20444;-67
2021/12/21 22:40:32;;;;;;;5.80;4.97;;;22.70;65.90;;;;;;5053848;28;20474;-67
2021/12/21 22:42:59;;;;;;;5.13;4.73;;;22.70;66.00;;;;;;5053947;28;20951;-67
2021/12/21 22:45:27;;;;;;;5.00;4.50;;;22.70;65.90;;;;;;5053796;28;20976;-67
2021/12/21 22:47:54;;;;;;;5.30;4.70;;;22.70;65.90;;;;;;5053879;28;20936;-67
2021/12/21 22:50:21;;;;;;;5.40;4.90;;;22.70;65.80;;;;;;5053872;28;20441;-67
2021/12/21 22:52:49;;;;;;;5.20;4.70;;;22.70;65.90;;;;;;5053985;28;20441;-67
2021/12/21 22:55:16;;;;;;;4.77;4.27;;;22.70;65.90;;;;;;5053893;28;20793;-67
2021/12/21 22:57:43;;;;;;;4.80;4.40;;;22.70;65.50;;;;;;5053585;28;20438;-67
2021/12/21 23:00:11;;;;;;;4.73;4.37;;;22.70;65.40;;;;;;5053787;28;20441;-67
2021/12/21 23:02:37;;;;;;;5.53;5.10;;;22.70;65.70;;;;;;5053629;28;20441;-67
2021/12/21 23:05:05;;;;;;;4.47;4.07;;;22.70;65.50;;;;;;5053611;28;20531;-67
2021/12/21 23:07:32;;;;;;;4.17;3.80;;;22.70;65.60;;;;;;5053690;28;20813;-67
2021/12/21 23:10:00;;;;;;;5.33;4.83;;;22.70;65.60;;;;;;5053474;28;20441;-67
2021/12/21 23:12:26;;;;;;;5.23;4.50;;;22.70;65.50;;;;;;5053493;28;20508;-67
2021/12/21 23:14:54;;;;;;;5.07;4.63;;;22.70;65.20;;;;;;5053220;28;20465;-67
2021/12/21 23:17:21;;;;;;;4.20;3.80;;;22.70;64.80;;;;;;5053250;28;20434;-67
2021/12/21 23:19:49;;;;;;;4.90;4.00;;;22.70;64.80;;;;;;5053510;28;20447;-67
2021/12/21 23:22:16;;;;;;;4.17;3.87;;;22.70;65.00;;;;;;5053323;28;20520;-67
2021/12/21 23:24:42;;;;;;;4.30;4.00;;;22.70;64.70;;;;;;5053149;28;20477;-67
2021/12/21 23:27:11;;;;;;;5.20;4.70;;;22.70;64.80;;;;;;5053171;28;20464;-67
2021/12/21 23:29:37;;;;;;;4.10;3.80;;;22.70;64.40;;;;;;5053155;28;20453;-67
2021/12/21 23:32:05;;;;;;;4.07;3.77;;;22.70;64.30;;;;;;5053255;28;20791;-67
2021/12/21 23:34:32;;;;;;;4.33;4.03;;;22.70;64.20;;;;;;5053189;28;20433;-67
2021/12/21 23:36:59;;;;;;;4.23;3.93;;;22.70;64.30;;;;;;5053015;28;20441;-67
2021/12/21 23:39:25;;;;;;;4.63;4.23;;;22.60;64.00;;;;;;5053121;28;20449;-67
2021/12/21 23:41:52;;;;;;;5.00;4.20;;;22.60;64.30;;;;;;5053168;28;20449;-67
2021/12/21 23:44:20;;;;;;;3.53;3.30;;;22.70;63.60;;;;;;5053077;28;20811;-67
2021/12/21 23:46:47;;;;;;;4.47;4.07;;;22.70;63.60;;;;;;5052891;28;20461;-67
2021/12/21 23:49:14;;;;;;;4.57;4.17;;;22.60;63.50;;;;;;5053013;28;20434;-67
2021/12/21 23:51:41;;;;;;;4.17;3.87;;;22.70;63.10;;;;;;5052939;28;20521;-67
2021/12/21 23:54:08;;;;;;;3.47;3.20;;;22.60;63.20;;;;;;5053057;28;20444;-67
2021/12/21 23:56:35;;;;;;;4.23;3.93;;;22.70;62.80;;;;;;5053133;28;20909;-67
2021/12/21 23:59:01;;;;;;;4.57;4.27;;;22.60;62.80;;;;;;5052928;28;20448;-67
